createdAt,value
2022-10-10T00:00:49.141Z,1.63
2022-10-10T00:03:18.558Z,1.80
2022-10-10T00:05:45.677Z,1.80
2022-10-10T00:08:12.454Z,2.10
2022-10-10T00:10:38.923Z,2.85
2022-10-10T00:13:08.005Z,2.90
2022-10-10T00:15:34.423Z,2.30
2022-10-10T00:18:00.823Z,2.28
2022-10-10T00:20:27.445Z,1.60
2022-10-10T00:22:54.231Z,1.55
2022-10-10T00:25:20.759Z,1.80
2022-10-10T00:27:47.501Z,1.23
2022-10-10T00:30:14.052Z,1.30
2022-10-10T00:32:40.415Z,1.52
2022-10-10T00:35:09.466Z,1.85
2022-10-10T00:37:35.889Z,1.20
2022-10-10T00:40:02.403Z,2.05
2022-10-10T00:42:28.841Z,1.38
2022-10-10T00:45:29.530Z,1.58
2022-10-10T00:48:27.928Z,1.48
2022-10-10T00:50:56.779Z,1.70
2022-10-10T00:53:30.538Z,1.40
2022-10-10T00:55:59.814Z,1.13
2022-10-10T00:58:28.488Z,1.45
2022-10-10T01:00:55.562Z,1.80
2022-10-10T01:03:22.037Z,1.52
2022-10-10T01:05:53.554Z,1.30
2022-10-10T01:08:21.050Z,2.47
2022-10-10T01:10:59.025Z,6.47
2022-10-10T01:13:38.518Z,3.30
2022-10-10T01:16:17.495Z,2.70
2022-10-10T01:19:05.711Z,1.95
2022-10-10T01:21:44.489Z,2.60
2022-10-10T01:24:32.912Z,3.58
2022-10-10T01:27:08.969Z,4.57
2022-10-10T01:29:51.076Z,3.30
2022-10-10T01:32:34.991Z,2.28
2022-10-10T01:35:13.673Z,1.83
2022-10-10T01:38:03.384Z,1.85
2022-10-10T01:41:00.560Z,1.73
2022-10-10T01:43:27.044Z,1.50
2022-10-10T01:45:54.306Z,1.85
2022-10-10T01:48:30.774Z,1.63
2022-10-10T01:51:18.457Z,1.55
2022-10-10T01:53:54.324Z,2.10
2022-10-10T01:56:32.437Z,1.73
2022-10-10T01:59:24.162Z,1.40
2022-10-10T02:02:55.242Z,1.43
2022-10-10T02:05:48.444Z,1.63
2022-10-10T02:08:17.826Z,1.35
2022-10-10T02:10:52.432Z,1.88
2022-10-10T02:13:23.803Z,1.73
2022-10-10T02:15:53.767Z,2.30
2022-10-10T02:18:25.420Z,2.33
2022-10-10T02:20:53.421Z,2.53
2022-10-10T02:23:21.884Z,2.25
2022-10-10T02:25:55.645Z,1.67
2022-10-10T02:28:50.479Z,1.67
2022-10-10T02:31:25.729Z,1.60
2022-10-10T02:33:58.397Z,1.90
2022-10-10T02:36:27.337Z,1.52
2022-10-10T02:38:55.607Z,1.38
2022-10-10T02:41:23.280Z,1.10
2022-10-10T02:43:51.847Z,1.27
2022-10-10T02:46:18.511Z,1.40
2022-10-10T02:48:45.128Z,1.48
2022-10-10T02:51:14.237Z,1.25
2022-10-10T02:53:40.650Z,1.10
2022-10-10T02:56:11.900Z,1.70
2022-10-10T02:58:38.254Z,1.45
2022-10-10T03:01:04.771Z,2.42
2022-10-10T03:03:31.216Z,1.65
2022-10-10T03:06:05.073Z,1.80
2022-10-10T03:08:31.926Z,1.58
2022-10-10T03:11:00.756Z,1.63
2022-10-10T03:13:30.583Z,1.63
2022-10-10T03:15:57.216Z,1.40
2022-10-10T03:18:24.003Z,1.70
2022-10-10T03:20:52.449Z,1.58
2022-10-10T03:23:19.049Z,1.38
2022-10-10T03:25:45.919Z,2.10
2022-10-10T03:28:15.416Z,1.60
2022-10-10T03:30:42.489Z,1.80
2022-10-10T03:33:09.748Z,1.77
2022-10-10T03:35:41.343Z,2.00
2022-10-10T03:38:07.818Z,1.73
2022-10-10T03:40:34.370Z,2.20
2022-10-10T03:43:00.816Z,1.80
2022-10-10T03:45:27.209Z,2.30
2022-10-10T03:47:53.750Z,2.30
2022-10-10T03:50:20.262Z,2.83
2022-10-10T03:52:49.381Z,1.45
2022-10-10T03:55:16.476Z,1.77
2022-10-10T03:57:42.948Z,1.83
2022-10-10T04:00:10.494Z,1.90
2022-10-10T04:02:39.435Z,2.15
2022-10-10T04:05:06.297Z,2.30
2022-10-10T04:07:33.097Z,3.50
2022-10-10T04:10:02.336Z,2.95
2022-10-10T04:12:28.776Z,3.10
2022-10-10T04:14:55.236Z,2.63
2022-10-10T04:17:21.733Z,2.22
2022-10-10T04:19:48.144Z,2.42
2022-10-10T04:22:17.020Z,2.20
2022-10-10T04:24:44.112Z,2.40
2022-10-10T04:27:11.098Z,1.45
2022-10-10T04:29:37.550Z,2.70
2022-10-10T04:32:06.235Z,2.80
2022-10-10T04:34:32.738Z,1.88
2022-10-10T04:37:01.653Z,2.45
2022-10-10T04:39:28.553Z,3.28
2022-10-10T04:41:54.987Z,2.85
2022-10-10T04:44:21.354Z,2.80
2022-10-10T04:46:47.797Z,2.50
2022-10-10T04:49:14.223Z,1.70
2022-10-10T04:51:40.576Z,2.40
2022-10-10T04:54:07.061Z,2.75
2022-10-10T04:56:33.541Z,2.70
2022-10-10T04:58:59.963Z,2.30
2022-10-10T05:01:28.998Z,2.67
2022-10-10T05:03:55.965Z,2.85
2022-10-10T05:06:22.491Z,2.65
2022-10-10T05:08:48.928Z,3.53
2022-10-10T05:11:15.312Z,3.28
2022-10-10T05:13:41.738Z,2.58
2022-10-10T05:16:08.281Z,2.83
2022-10-10T05:18:37.353Z,2.45
2022-10-10T05:21:06.886Z,2.40
2022-10-10T05:23:34.493Z,2.33
2022-10-10T05:26:03.224Z,2.40
2022-10-10T05:28:35.124Z,2.17
2022-10-10T05:31:02.382Z,3.03
2022-10-10T05:33:29.082Z,2.55
2022-10-10T05:36:12.129Z,2.85
2022-10-10T05:38:44.430Z,2.97
2022-10-10T05:43:39.703Z,2.60
2022-10-10T05:46:06.407Z,2.15
2022-10-10T05:48:32.846Z,2.80
2022-10-10T05:51:02.231Z,3.00
2022-10-10T05:53:30.341Z,2.25
2022-10-10T05:56:01.171Z,2.53
2022-10-10T05:58:27.658Z,3.17
2022-10-10T06:00:54.662Z,2.63
2022-10-10T06:03:21.145Z,3.80
2022-10-10T06:05:51.730Z,2.38
2022-10-10T06:08:18.111Z,2.95
2022-10-10T06:10:46.305Z,2.80
2022-10-10T06:13:14.592Z,2.10
2022-10-10T06:15:41.416Z,2.60
2022-10-10T06:18:08.399Z,3.58
2022-10-10T06:20:42.957Z,2.90
2022-10-10T06:23:11.904Z,2.75
2022-10-10T06:25:40.907Z,3.22
2022-10-10T06:28:09.088Z,2.58
2022-10-10T06:30:40.044Z,3.10
2022-10-10T06:33:07.495Z,2.38
2022-10-10T06:35:33.929Z,2.65
2022-10-10T06:38:00.337Z,2.78
2022-10-10T06:40:29.034Z,3.35
2022-10-10T06:42:57.826Z,3.35
2022-10-10T06:45:26.911Z,3.90
2022-10-10T06:47:55.634Z,3.88
2022-10-10T06:50:22.097Z,3.53
2022-10-10T06:52:48.844Z,4.05
2022-10-10T06:55:15.467Z,4.22
2022-10-10T06:57:47.199Z,2.85
2022-10-10T07:00:14.692Z,3.20
2022-10-10T07:02:41.146Z,3.53
2022-10-10T07:05:11.996Z,3.13
2022-10-10T07:07:39.630Z,3.55
2022-10-10T07:10:07.303Z,3.20
2022-10-10T07:12:40.490Z,3.30
2022-10-10T07:15:10.233Z,3.45
2022-10-10T07:17:39.065Z,3.53
2022-10-10T07:20:06.132Z,3.25
2022-10-10T07:22:37.661Z,3.25
2022-10-10T07:25:04.529Z,4.50
2022-10-10T07:27:33.247Z,3.15
2022-10-10T07:29:59.628Z,3.70
2022-10-10T07:32:26.090Z,3.50
2022-10-10T07:34:53.557Z,3.67
2022-10-10T07:37:19.984Z,3.85
2022-10-10T07:39:46.389Z,6.90
2022-10-10T07:42:12.840Z,9.15
2022-10-10T07:44:39.336Z,6.47
2022-10-10T07:47:05.992Z,6.90
2022-10-10T07:49:32.621Z,6.00
2022-10-10T07:52:01.451Z,5.75
2022-10-10T07:54:32.032Z,5.05
2022-10-10T07:56:58.592Z,4.22
2022-10-10T07:59:27.888Z,4.78
2022-10-10T08:01:56.714Z,3.08
2022-10-10T08:04:23.403Z,3.03
2022-10-10T08:06:49.854Z,3.33
2022-10-10T08:09:16.361Z,3.17
2022-10-10T08:11:43.095Z,2.88
2022-10-10T08:14:09.698Z,2.92
2022-10-10T08:16:36.691Z,2.80
2022-10-10T08:19:03.814Z,2.80
2022-10-10T08:21:30.232Z,2.53
2022-10-10T08:23:56.793Z,3.08
2022-10-10T08:26:23.136Z,3.30
2022-10-10T08:28:49.879Z,2.72
2022-10-10T08:31:19.459Z,3.10
2022-10-10T08:33:46.763Z,2.78
2022-10-10T08:36:24.210Z,2.67
2022-10-10T08:38:52.660Z,2.95
2022-10-10T08:41:34.802Z,2.58
2022-10-10T08:44:12.162Z,3.15
2022-10-10T08:46:52.394Z,2.90
2022-10-10T08:49:23.450Z,2.63
2022-10-10T08:51:58.223Z,3.08
2022-10-10T08:54:26.897Z,2.70
2022-10-10T08:57:00.650Z,3.25
2022-10-10T08:59:34.747Z,3.22
2022-10-10T09:02:26.360Z,2.95
2022-10-10T09:05:05.411Z,3.15
2022-10-10T09:07:50.312Z,2.80
2022-10-10T09:10:34.669Z,4.32
2022-10-10T09:13:15.178Z,3.75
2022-10-10T09:15:52.025Z,3.25
2022-10-10T09:18:33.315Z,3.03
2022-10-10T09:21:14.613Z,3.07
2022-10-10T09:23:45.998Z,3.53
2022-10-10T09:26:15.035Z,3.30
2022-10-10T09:28:50.592Z,2.83
2022-10-10T09:31:28.471Z,2.83
2022-10-10T09:34:21.281Z,3.60
2022-10-10T09:36:48.261Z,2.72
2022-10-10T09:39:31.162Z,3.20
2022-10-10T09:42:05.196Z,2.53
2022-10-10T09:44:34.236Z,3.00
2022-10-10T09:47:00.669Z,3.15
2022-10-10T09:49:29.612Z,2.95
2022-10-10T09:51:56.096Z,3.80
2022-10-10T09:54:24.957Z,2.72
2022-10-10T09:56:54.802Z,2.63
2022-10-10T09:59:36.722Z,2.65
2022-10-10T10:02:15.028Z,3.05
2022-10-10T10:04:41.569Z,4.63
2022-10-10T10:07:31.800Z,2.25
2022-10-10T10:10:02.018Z,2.25
2022-10-10T10:12:40.353Z,2.50
2022-10-10T10:15:23.714Z,2.40
2022-10-10T10:18:10.197Z,2.35
2022-10-10T10:20:41.964Z,2.30
2022-10-10T10:23:33.216Z,2.67
2022-10-10T10:26:19.861Z,2.40
2022-10-10T10:28:49.998Z,2.75
2022-10-10T10:32:09.761Z,2.47
2022-10-10T10:34:42.778Z,2.17
2022-10-10T10:37:14.840Z,2.55
2022-10-10T10:39:59.554Z,2.50
2022-10-10T10:42:59.648Z,2.30
2022-10-10T10:45:45.052Z,2.38
2022-10-10T10:48:21.296Z,2.08
2022-10-10T10:50:54.407Z,2.05
2022-10-10T10:53:34.124Z,2.60
2022-10-10T10:56:23.849Z,2.03
2022-10-10T11:00:26.619Z,2.42
2022-10-10T11:02:54.715Z,2.30
2022-10-10T11:05:31.161Z,2.10
2022-10-10T11:08:09.199Z,2.33
2022-10-10T11:10:56.457Z,2.50
2022-10-10T11:13:41.816Z,1.90
2022-10-10T11:16:43.942Z,1.90
2022-10-10T11:19:15.898Z,2.40
2022-10-10T11:21:54.534Z,1.92
2022-10-10T11:24:51.230Z,2.63
2022-10-10T11:27:50.753Z,1.90
2022-10-10T11:30:24.953Z,2.40
2022-10-10T11:33:08.045Z,1.77
2022-10-10T11:35:44.447Z,1.92
2022-10-10T11:38:15.131Z,1.58
2022-10-10T11:41:05.159Z,1.85
2022-10-10T11:43:59.732Z,2.20
2022-10-10T11:46:59.515Z,2.15
2022-10-10T11:49:34.757Z,2.00
2022-10-10T11:52:33.031Z,2.05
2022-10-10T11:55:26.414Z,2.83
2022-10-10T11:57:58.122Z,2.42
2022-10-10T12:00:28.515Z,2.38
2022-10-10T12:02:57.321Z,1.70
2022-10-10T12:05:30.083Z,1.77
2022-10-10T12:07:56.469Z,2.03
2022-10-10T12:10:35.452Z,2.30
2022-10-10T12:13:31.330Z,1.95
2022-10-10T12:16:03.283Z,2.35
2022-10-10T12:18:39.217Z,1.63
2022-10-10T12:21:12.301Z,1.80
2022-10-10T12:23:43.164Z,2.10
2022-10-10T12:26:19.430Z,1.83
2022-10-10T12:29:04.877Z,2.10
2022-10-10T12:31:38.677Z,2.63
2022-10-10T12:34:10.593Z,2.20
2022-10-10T12:36:40.141Z,3.20
2022-10-10T12:39:07.822Z,2.20
2022-10-10T12:41:52.720Z,1.95
2022-10-10T12:44:24.309Z,2.35
2022-10-10T12:47:15.983Z,1.90
2022-10-10T12:50:00.396Z,2.28
2022-10-10T12:52:32.898Z,1.73
2022-10-10T12:55:06.542Z,1.98
2022-10-10T12:57:38.107Z,2.45
2022-10-10T13:00:35.527Z,2.10
2022-10-10T13:03:10.796Z,1.60
2022-10-10T13:05:40.888Z,1.75
2022-10-10T13:08:13.974Z,2.25
2022-10-10T13:10:40.466Z,2.08
2022-10-10T13:13:17.420Z,1.92
2022-10-10T13:15:54.918Z,1.92
2022-10-10T13:18:33.697Z,2.17
2022-10-10T13:21:01.579Z,1.75
2022-10-10T13:23:28.517Z,2.42
2022-10-10T13:25:55.061Z,2.25
2022-10-10T13:28:22.219Z,1.83
2022-10-10T13:30:50.432Z,2.13
2022-10-10T13:33:22.744Z,2.05
2022-10-10T13:35:50.694Z,1.92
2022-10-10T13:38:20.008Z,2.13
2022-10-10T13:40:49.938Z,2.22
2022-10-10T13:43:18.507Z,2.40
2022-10-10T13:45:55.888Z,2.75
2022-10-10T13:48:27.493Z,1.75
2022-10-10T13:51:03.999Z,2.15
2022-10-10T13:53:44.912Z,2.00
2022-10-10T13:56:23.089Z,2.00
2022-10-10T13:58:55.388Z,2.47
2022-10-10T14:02:01.297Z,2.55
2022-10-10T14:04:35.021Z,3.88
2022-10-10T14:07:08.628Z,3.05
2022-10-10T14:09:38.248Z,3.63
2022-10-10T14:12:10.644Z,2.35
2022-10-10T14:14:47.888Z,4.85
2022-10-10T14:17:15.272Z,2.88
2022-10-10T14:19:44.998Z,2.95
2022-10-10T14:22:11.506Z,2.15
2022-10-10T14:24:38.005Z,2.72
2022-10-10T14:27:13.399Z,2.33
2022-10-10T14:29:39.955Z,1.55
2022-10-10T14:32:06.409Z,1.90
2022-10-10T14:34:32.811Z,2.40
2022-10-10T14:37:04.503Z,2.67
2022-10-10T14:39:31.150Z,2.45
2022-10-10T14:41:58.749Z,2.50
2022-10-10T14:44:29.901Z,2.33
2022-10-10T14:46:56.349Z,2.15
2022-10-10T14:49:25.318Z,1.83
2022-10-10T14:51:51.828Z,1.95
2022-10-10T14:54:20.576Z,2.33
2022-10-10T14:57:08.489Z,2.47
2022-10-10T14:59:47.506Z,2.28
2022-10-10T15:02:19.726Z,2.22
2022-10-10T15:04:46.247Z,2.88
2022-10-10T15:07:14.595Z,2.17
2022-10-10T15:10:02.541Z,2.25
2022-10-10T15:12:31.322Z,2.42
2022-10-10T15:14:57.863Z,2.80
2022-10-10T15:17:25.538Z,2.28
2022-10-10T15:19:52.209Z,2.13
2022-10-10T15:22:19.128Z,1.85
2022-10-10T15:24:48.056Z,2.13
2022-10-10T15:27:14.424Z,2.20
2022-10-10T15:29:40.968Z,3.17
2022-10-10T15:32:07.914Z,3.10
2022-10-10T15:34:34.854Z,2.05
2022-10-10T15:37:01.335Z,5.43
2022-10-10T15:39:32.346Z,4.55
2022-10-10T15:42:09.350Z,3.70
2022-10-10T15:44:45.670Z,2.97
2022-10-10T15:47:13.461Z,2.78
2022-10-10T15:49:40.426Z,3.40
2022-10-10T15:52:11.030Z,3.40
2022-10-10T15:54:40.217Z,2.67
2022-10-10T15:57:06.550Z,2.00
2022-10-10T15:59:33.259Z,2.85
2022-10-10T16:02:00.539Z,2.80
2022-10-10T16:04:27.118Z,2.15
2022-10-10T16:07:19.921Z,3.03
2022-10-10T16:09:40.733Z,2.70
2022-10-10T16:12:07.262Z,2.38
2022-10-10T16:14:33.721Z,2.40
2022-10-10T16:17:00.865Z,2.97
2022-10-10T16:19:27.254Z,2.75
2022-10-10T16:21:53.661Z,3.05
2022-10-10T16:24:20.085Z,2.50
2022-10-10T16:26:46.582Z,4.22
2022-10-10T16:29:18.398Z,3.50
2022-10-10T16:34:12.817Z,3.30
2022-10-10T16:36:39.538Z,2.80
2022-10-10T16:39:05.972Z,3.10
2022-10-10T16:41:49.563Z,2.40
2022-10-10T16:44:17.496Z,3.05
2022-10-10T16:46:44.279Z,3.00
2022-10-10T16:49:12.703Z,3.05
2022-10-10T16:51:42.338Z,2.80
2022-10-10T16:54:13.303Z,2.20
2022-10-10T16:56:42.878Z,3.27
2022-10-10T16:59:11.409Z,2.00
2022-10-10T17:01:38.020Z,2.60
2022-10-10T17:04:04.807Z,2.53
2022-10-10T17:06:37.329Z,2.30
2022-10-10T17:09:09.916Z,3.00
2022-10-10T17:11:36.454Z,2.45
2022-10-10T17:14:05.794Z,2.42
2022-10-10T17:19:18.851Z,3.78
2022-10-10T17:21:45.281Z,5.35
2022-10-10T17:24:11.661Z,5.50
2022-10-10T17:26:40.554Z,3.78
2022-10-10T17:29:09.397Z,3.58
2022-10-10T17:31:38.084Z,2.33
2022-10-10T17:34:04.441Z,3.42
2022-10-10T17:36:38.011Z,3.13
2022-10-10T17:39:04.455Z,4.15
2022-10-10T17:41:33.172Z,2.33
2022-10-10T17:43:59.753Z,2.65
2022-10-10T17:46:36.167Z,2.05
2022-10-10T17:49:09.840Z,2.15
2022-10-10T17:51:38.785Z,2.55
2022-10-10T17:54:08.418Z,3.05
2022-10-10T17:56:35.470Z,2.33
2022-10-10T17:59:05.510Z,3.40
2022-10-10T18:01:33.281Z,3.20
2022-10-10T18:04:00.353Z,3.55
2022-10-10T18:06:29.199Z,4.18
2022-10-10T18:08:56.419Z,3.25
2022-10-10T18:11:25.930Z,5.20
2022-10-10T18:13:52.826Z,4.13
2022-10-10T18:16:22.144Z,4.90
2022-10-10T18:18:51.692Z,4.85
2022-10-10T18:21:21.339Z,5.22
2022-10-10T18:23:48.723Z,5.35
2022-10-10T18:26:22.556Z,5.53
2022-10-10T18:28:52.224Z,5.20
2022-10-10T18:31:24.656Z,5.60
2022-10-10T18:33:51.208Z,11.82
2022-10-10T18:36:21.781Z,15.50
2022-10-10T18:38:48.268Z,7.70
2022-10-10T18:41:17.332Z,10.02
2022-10-10T18:43:44.740Z,7.35
2022-10-10T18:46:13.509Z,6.53
2022-10-10T18:48:48.062Z,4.22
2022-10-10T18:51:24.692Z,3.88
2022-10-10T18:53:55.078Z,3.80
2022-10-10T18:56:24.460Z,4.47
2022-10-10T18:58:55.736Z,3.20
2022-10-10T19:01:24.779Z,3.05
2022-10-10T19:03:52.532Z,3.17
2022-10-10T19:06:19.683Z,3.72
2022-10-10T19:08:46.249Z,3.78
2022-10-10T19:11:25.930Z,4.00
2022-10-10T19:13:52.629Z,4.28
2022-10-10T19:16:19.882Z,5.47
2022-10-10T19:18:46.899Z,3.58
2022-10-10T19:21:14.954Z,6.07
2022-10-10T19:23:42.309Z,5.22
2022-10-10T19:26:12.257Z,3.75
2022-10-10T19:28:39.698Z,3.60
2022-10-10T19:31:08.924Z,3.80
2022-10-10T19:33:38.531Z,6.78
2022-10-10T19:36:09.178Z,5.43
2022-10-10T19:38:38.623Z,9.02
2022-10-10T19:41:07.423Z,15.60
2022-10-10T19:43:36.621Z,7.30
2022-10-10T19:46:08.200Z,4.90
2022-10-10T19:48:36.826Z,4.50
2022-10-10T19:51:08.984Z,3.05
2022-10-10T19:53:36.746Z,3.53
2022-10-10T19:56:08.608Z,2.72
2022-10-10T19:58:36.904Z,2.92
2022-10-10T20:01:17.328Z,2.17
2022-10-10T20:03:46.272Z,2.20
2022-10-10T20:06:13.079Z,2.85
2022-10-10T20:08:40.123Z,2.75
2022-10-10T20:11:06.872Z,3.15
2022-10-10T20:13:34.781Z,3.25
2022-10-10T20:16:06.872Z,2.17
2022-10-10T20:18:35.153Z,2.58
2022-10-10T20:21:08.915Z,2.90
2022-10-10T20:23:38.941Z,2.88
2022-10-10T20:26:11.408Z,3.33
2022-10-10T20:28:37.946Z,4.20
2022-10-10T20:31:04.583Z,2.92
2022-10-10T20:33:31.481Z,3.45
2022-10-10T20:36:00.807Z,3.20
2022-10-10T20:38:29.759Z,3.38
2022-10-10T20:40:56.233Z,3.97
2022-10-10T20:43:22.697Z,3.60
2022-10-10T20:45:49.064Z,3.60
2022-10-10T20:48:17.918Z,3.78
2022-10-10T20:50:44.386Z,3.47
2022-10-10T20:53:14.083Z,4.15
2022-10-10T20:55:40.659Z,3.00
2022-10-10T20:58:07.152Z,3.75
2022-10-10T21:00:37.551Z,3.25
2022-10-10T21:03:06.249Z,3.50
2022-10-10T21:05:32.685Z,4.35
2022-10-10T21:07:59.054Z,3.20
2022-10-10T21:10:25.496Z,3.65
2022-10-10T21:12:51.905Z,4.07
2022-10-10T21:15:23.275Z,3.38
2022-10-10T21:17:49.708Z,3.60
2022-10-10T21:20:16.208Z,3.63
2022-10-10T21:22:42.638Z,3.38
2022-10-10T21:25:13.121Z,3.15
2022-10-10T21:27:39.546Z,3.17
2022-10-10T21:30:06.599Z,3.53
2022-10-10T21:32:33.019Z,3.95
2022-10-10T21:34:59.424Z,2.70
2022-10-10T21:37:27.149Z,3.63
2022-10-10T21:39:53.523Z,3.28
2022-10-10T21:42:22.446Z,2.60
2022-10-10T21:44:48.795Z,4.30
2022-10-10T21:47:15.255Z,4.43
2022-10-10T21:49:41.733Z,3.25
2022-10-10T21:52:08.166Z,4.13
2022-10-10T21:54:34.594Z,3.63
2022-10-10T21:57:01.049Z,3.97
2022-10-10T21:59:31.539Z,4.18
2022-10-10T22:01:58.989Z,4.43
2022-10-10T22:04:28.854Z,4.70
2022-10-10T22:06:55.666Z,5.35
2022-10-10T22:09:22.215Z,4.80
2022-10-10T22:11:51.049Z,5.43
2022-10-10T22:14:17.509Z,5.20
2022-10-10T22:16:49.038Z,5.90
2022-10-10T22:19:17.857Z,6.60
2022-10-10T22:21:44.242Z,6.32
2022-10-10T22:24:10.843Z,6.32
2022-10-10T22:26:37.356Z,7.90
2022-10-10T22:29:04.404Z,7.03
2022-10-10T22:31:31.056Z,6.75
2022-10-10T22:33:57.685Z,7.22
2022-10-10T22:36:24.062Z,4.32
2022-10-10T22:38:50.529Z,5.90
2022-10-10T22:41:19.234Z,5.97
2022-10-10T22:43:45.678Z,4.70
2022-10-10T22:46:12.213Z,5.03
2022-10-10T22:48:39.195Z,5.78
2022-10-10T22:51:09.108Z,4.88
2022-10-10T22:53:35.852Z,5.68
2022-10-10T22:56:03.237Z,6.05
2022-10-10T22:58:31.801Z,5.55
2022-10-10T23:01:04.798Z,5.70
2022-10-10T23:03:31.308Z,6.50
2022-10-10T23:06:02.933Z,4.78
2022-10-10T23:10:58.871Z,6.13
2022-10-10T23:13:27.884Z,5.13
2022-10-10T23:15:54.552Z,4.60
2022-10-10T23:18:21.094Z,3.28
2022-10-10T23:20:50.526Z,4.03
2022-10-10T23:23:18.436Z,5.43
2022-10-10T23:25:48.335Z,3.20
2022-10-10T23:28:15.868Z,3.97
2022-10-10T23:30:47.235Z,3.45
2022-10-10T23:33:15.010Z,4.68
2022-10-10T23:35:41.399Z,3.63
2022-10-10T23:38:08.014Z,3.28
2022-10-10T23:40:34.545Z,4.30
2022-10-10T23:43:01.104Z,4.22
2022-10-10T23:45:29.825Z,4.10
2022-10-10T23:48:00.958Z,5.18
2022-10-10T23:50:27.347Z,4.20
2022-10-10T23:52:55.849Z,5.05
2022-10-10T23:55:24.891Z,4.95
2022-10-10T23:57:51.275Z,4.72
